createdAt,value
2018-06-15T00:00:14.684Z,15.50
2018-06-15T00:00:45.858Z,17.27
2018-06-15T00:01:17.025Z,14.78
2018-06-15T00:01:48.201Z,16.00
2018-06-15T00:02:19.379Z,17.02
2018-06-15T00:02:50.552Z,14.43
2018-06-15T00:03:21.773Z,13.30
2018-06-15T00:03:53.001Z,13.25
2018-06-15T00:04:24.224Z,15.00
2018-06-15T00:04:55.397Z,13.43
2018-06-15T00:05:26.580Z,17.40
2018-06-15T00:05:57.759Z,15.70
2018-06-15T00:06:28.928Z,15.20
2018-06-15T00:07:00.161Z,16.65
2018-06-15T00:07:31.378Z,14.38
2018-06-15T00:08:02.548Z,15.50
2018-06-15T00:08:33.784Z,12.95
2018-06-15T00:09:04.947Z,14.23
2018-06-15T00:09:36.153Z,12.45
2018-06-15T00:10:07.356Z,11.28
2018-06-15T00:10:39.479Z,16.10
2018-06-15T00:11:10.660Z,13.75
2018-06-15T00:11:41.829Z,13.25
2018-06-15T00:12:13.050Z,13.43
2018-06-15T00:12:44.259Z,16.82
2018-06-15T00:13:15.489Z,13.28
2018-06-15T00:13:46.721Z,13.08
2018-06-15T00:14:17.904Z,14.93
2018-06-15T00:14:49.072Z,14.55
2018-06-15T00:15:20.299Z,13.38
2018-06-15T00:15:51.512Z,13.78
2018-06-15T00:16:22.694Z,12.43
2018-06-15T00:16:53.914Z,12.98
2018-06-15T00:17:25.146Z,13.72
2018-06-15T00:17:56.341Z,17.25
2018-06-15T00:18:27.561Z,16.65
2018-06-15T00:18:58.752Z,19.15
2018-06-15T00:19:29.973Z,21.57
2018-06-15T00:20:01.204Z,26.37
2018-06-15T00:20:32.489Z,25.57
2018-06-15T00:21:03.687Z,21.93
2018-06-15T00:21:34.905Z,21.82
2018-06-15T00:22:06.151Z,17.23
2018-06-15T00:22:37.381Z,15.53
2018-06-15T00:23:08.612Z,19.42
2018-06-15T00:23:39.781Z,17.60
2018-06-15T00:24:10.948Z,14.98
2018-06-15T00:24:42.114Z,15.58
2018-06-15T00:25:13.376Z,18.65
2018-06-15T00:25:44.661Z,15.45
2018-06-15T00:26:15.840Z,17.23
2018-06-15T00:26:47.009Z,16.55
2018-06-15T00:27:18.176Z,16.27
2018-06-15T00:27:49.409Z,17.77
2018-06-15T00:28:20.684Z,20.17
2018-06-15T00:28:51.905Z,16.25
2018-06-15T00:29:23.141Z,18.90
2018-06-15T00:29:54.348Z,17.87
2018-06-15T00:30:25.552Z,20.23
2018-06-15T00:30:56.734Z,19.98
2018-06-15T00:31:27.969Z,15.30
2018-06-15T00:31:59.358Z,17.62
2018-06-15T00:32:30.525Z,17.02
2018-06-15T00:33:01.792Z,21.45
2018-06-15T00:33:33.024Z,18.10
2018-06-15T00:34:04.205Z,17.23
2018-06-15T00:34:35.380Z,20.90
2018-06-15T00:35:06.597Z,18.95
2018-06-15T00:35:37.887Z,17.92
2018-06-15T00:36:09.133Z,18.02
2018-06-15T00:36:40.316Z,16.77
2018-06-15T00:37:11.496Z,23.92
2018-06-15T00:37:42.668Z,18.37
2018-06-15T00:38:13.874Z,21.40
2018-06-15T00:38:45.065Z,16.55
2018-06-15T00:39:16.232Z,15.93
2018-06-15T00:39:47.408Z,17.37
2018-06-15T00:40:18.568Z,18.23
2018-06-15T00:40:49.740Z,19.45
2018-06-15T00:41:20.973Z,19.57
2018-06-15T00:41:52.260Z,18.85
2018-06-15T00:42:23.441Z,18.15
2018-06-15T00:42:54.633Z,18.92
2018-06-15T00:43:25.799Z,17.92
2018-06-15T00:43:56.973Z,17.92
2018-06-15T00:44:28.140Z,25.12
2018-06-15T00:44:59.401Z,18.80
2018-06-15T00:45:30.576Z,23.83
2018-06-15T00:46:01.809Z,18.50
2018-06-15T00:46:33.008Z,21.55
2018-06-15T00:47:04.228Z,19.00
2018-06-15T00:47:35.461Z,22.70
2018-06-15T00:48:06.701Z,19.48
2018-06-15T00:48:37.928Z,20.40
2018-06-15T00:49:09.100Z,21.12
2018-06-15T00:49:40.279Z,21.30
2018-06-15T00:50:11.493Z,20.60
2018-06-15T00:50:42.729Z,24.35
2018-06-15T00:51:13.972Z,23.22
2018-06-15T00:51:45.160Z,23.67
2018-06-15T00:52:16.336Z,23.32
2018-06-15T00:52:47.545Z,22.80
2018-06-15T00:53:18.725Z,20.70
2018-06-15T00:53:49.904Z,25.68
2018-06-15T00:54:21.069Z,24.15
2018-06-15T00:54:52.241Z,23.42
2018-06-15T00:55:23.408Z,27.22
2018-06-15T00:55:54.580Z,22.73
2018-06-15T00:56:25.799Z,20.60
2018-06-15T00:56:56.988Z,23.62
2018-06-15T00:57:28.220Z,20.45
2018-06-15T00:57:59.396Z,23.52
2018-06-15T00:58:30.561Z,22.52
2018-06-15T00:59:01.752Z,22.02
2018-06-15T00:59:32.926Z,20.45
2018-06-15T01:00:04.145Z,25.65
2018-06-15T01:00:35.333Z,21.77
2018-06-15T01:01:06.500Z,22.40
2018-06-15T01:01:37.752Z,24.02
2018-06-15T01:02:08.916Z,22.37
2018-06-15T01:02:40.088Z,21.93
2018-06-15T01:03:11.307Z,25.62
2018-06-15T01:03:42.553Z,24.27
2018-06-15T01:04:13.744Z,25.52
2018-06-15T01:04:44.908Z,25.10
2018-06-15T01:05:16.138Z,24.18
2018-06-15T01:05:47.364Z,23.40
2018-06-15T01:06:18.558Z,23.92
2018-06-15T01:06:49.772Z,25.60
2018-06-15T01:07:21.009Z,21.05
2018-06-15T01:07:52.241Z,24.55
2018-06-15T01:08:23.424Z,25.45
2018-06-15T01:08:54.600Z,19.35
2018-06-15T01:09:25.764Z,24.23
2018-06-15T01:09:57.023Z,22.62
2018-06-15T01:10:28.220Z,18.67
2018-06-15T01:10:59.393Z,23.12
2018-06-15T01:11:30.560Z,24.75
2018-06-15T01:12:01.735Z,20.95
2018-06-15T01:12:32.917Z,18.55
2018-06-15T01:13:04.137Z,23.55
2018-06-15T01:13:35.365Z,22.00
2018-06-15T01:14:06.590Z,17.98
2018-06-15T01:14:37.830Z,26.77
2018-06-15T01:15:09.013Z,23.85
2018-06-15T01:15:40.193Z,22.22
2018-06-15T01:16:11.378Z,18.17
2018-06-15T01:16:42.635Z,22.82
2018-06-15T01:17:13.851Z,20.50
2018-06-15T01:17:45.029Z,18.35
2018-06-15T01:18:16.256Z,23.40
2018-06-15T01:18:47.476Z,23.85
2018-06-15T01:19:18.722Z,21.52
2018-06-15T01:19:49.901Z,19.30
2018-06-15T01:20:21.129Z,18.02
2018-06-15T01:20:52.304Z,18.27
2018-06-15T01:21:23.477Z,22.75
2018-06-15T01:21:54.738Z,20.82
2018-06-15T01:22:25.956Z,19.67
2018-06-15T01:22:57.182Z,18.10
2018-06-15T01:23:28.401Z,18.65
2018-06-15T01:23:59.582Z,19.25
2018-06-15T01:24:30.775Z,21.48
2018-06-15T01:25:01.952Z,16.95
2018-06-15T01:25:33.162Z,17.42
2018-06-15T01:26:04.332Z,18.82
2018-06-15T01:26:35.500Z,17.57
2018-06-15T01:27:06.736Z,19.55
2018-06-15T01:27:37.904Z,20.80
2018-06-15T01:28:09.096Z,17.75
2018-06-15T01:28:40.274Z,25.00
2018-06-15T01:29:11.538Z,20.68
2018-06-15T01:29:42.773Z,18.10
2018-06-15T01:30:14.004Z,19.75
2018-06-15T01:30:45.273Z,22.87
2018-06-15T01:31:16.444Z,23.22
2018-06-15T01:31:47.623Z,19.50
2018-06-15T01:32:18.788Z,19.92
2018-06-15T01:32:49.960Z,24.15
2018-06-15T01:33:21.124Z,20.55
2018-06-15T01:33:52.345Z,18.48
2018-06-15T01:34:23.591Z,16.30
2018-06-15T01:34:54.777Z,20.92
2018-06-15T01:35:25.981Z,22.55
2018-06-15T01:35:57.196Z,24.90
2018-06-15T01:36:28.364Z,23.67
2018-06-15T01:36:59.534Z,25.43
2018-06-15T01:37:30.712Z,19.32
2018-06-15T01:38:01.934Z,22.98
2018-06-15T01:38:33.124Z,22.15
2018-06-15T01:39:04.292Z,26.23
2018-06-15T01:39:35.461Z,23.32
2018-06-15T01:40:06.637Z,25.57
2018-06-15T01:40:37.841Z,20.77
2018-06-15T01:41:09.011Z,27.30
2018-06-15T01:41:40.184Z,27.55
2018-06-15T01:42:11.368Z,23.60
2018-06-15T01:42:42.581Z,28.62
2018-06-15T01:43:13.748Z,23.27
2018-06-15T01:43:44.924Z,17.60
2018-06-15T01:44:16.099Z,23.73
2018-06-15T01:44:47.290Z,25.40
2018-06-15T01:45:18.466Z,24.50
2018-06-15T01:45:49.680Z,28.42
2018-06-15T01:46:20.860Z,22.15
2018-06-15T01:46:52.025Z,18.70
2018-06-15T01:47:23.232Z,22.32
2018-06-15T01:47:54.462Z,22.02
2018-06-15T01:48:25.648Z,20.48
2018-06-15T01:48:56.901Z,22.70
2018-06-15T01:49:28.084Z,30.35
2018-06-15T01:49:59.317Z,26.10
2018-06-15T01:50:30.497Z,23.80
2018-06-15T01:51:01.765Z,26.62
2018-06-15T01:51:32.989Z,31.27
2018-06-15T01:52:04.212Z,31.95
2018-06-15T01:52:35.442Z,29.42
2018-06-15T01:53:06.625Z,32.23
2018-06-15T01:53:37.788Z,31.90
2018-06-15T01:54:09.017Z,33.80
2018-06-15T01:54:40.252Z,40.58
2018-06-15T01:55:11.501Z,33.53
2018-06-15T01:55:42.716Z,38.35
2018-06-15T01:56:13.936Z,35.45
2018-06-15T01:56:45.121Z,36.42
2018-06-15T01:57:16.301Z,37.10
2018-06-15T01:57:47.552Z,43.38
2018-06-15T01:58:18.733Z,35.78
2018-06-15T01:58:49.913Z,49.23
2018-06-15T01:59:21.121Z,44.48
2018-06-15T01:59:52.290Z,51.55
2018-06-15T02:00:23.472Z,39.88
2018-06-15T02:00:55.036Z,45.73
2018-06-15T02:01:26.320Z,39.08
2018-06-15T02:01:57.490Z,36.35
2018-06-15T02:02:28.681Z,40.23
2018-06-15T02:02:59.930Z,40.83
2018-06-15T02:03:31.116Z,35.83
2018-06-15T02:04:02.285Z,33.00
2018-06-15T02:04:33.517Z,39.45
2018-06-15T02:05:04.728Z,23.65
2018-06-15T02:05:35.950Z,26.48
2018-06-15T02:06:07.174Z,30.12
2018-06-15T02:06:38.347Z,29.55
2018-06-15T02:07:09.562Z,31.07
2018-06-15T02:07:40.782Z,31.02
2018-06-15T02:08:11.952Z,26.95
2018-06-15T02:08:43.119Z,29.10
2018-06-15T02:09:14.343Z,26.82
2018-06-15T02:09:45.576Z,23.47
2018-06-15T02:10:16.848Z,25.32
2018-06-15T02:10:48.069Z,29.90
2018-06-15T02:11:19.247Z,25.32
2018-06-15T02:11:50.466Z,21.77
2018-06-15T02:12:21.677Z,23.15
2018-06-15T02:12:52.853Z,21.82
2018-06-15T02:13:24.044Z,26.30
2018-06-15T02:13:55.240Z,24.95
2018-06-15T02:14:26.465Z,25.62
2018-06-15T02:14:57.704Z,23.05
2018-06-15T02:15:28.937Z,20.25
2018-06-15T02:16:00.106Z,17.60
2018-06-15T02:16:31.273Z,27.98
2018-06-15T02:17:02.445Z,23.47
2018-06-15T02:17:33.616Z,25.15
2018-06-15T02:18:04.825Z,21.55
2018-06-15T02:18:36.052Z,25.40
2018-06-15T02:19:07.250Z,19.98
2018-06-15T02:19:38.427Z,25.25
2018-06-15T02:20:09.597Z,23.02
2018-06-15T02:20:40.865Z,23.95
2018-06-15T02:21:12.040Z,25.65
2018-06-15T02:21:43.262Z,21.27
2018-06-15T02:22:14.441Z,24.23
2018-06-15T02:22:45.663Z,24.72
2018-06-15T02:23:16.922Z,31.05
2018-06-15T02:23:48.154Z,32.05
2018-06-15T02:24:19.380Z,25.05
2018-06-15T02:24:50.550Z,21.57
2018-06-15T02:25:21.720Z,24.32
2018-06-15T02:25:52.892Z,23.02
2018-06-15T02:26:24.078Z,25.65
2018-06-15T02:26:55.244Z,26.40
2018-06-15T02:27:26.448Z,26.30
2018-06-15T02:27:57.650Z,25.77
2018-06-15T02:28:28.890Z,25.75
2018-06-15T02:29:00.114Z,26.95
2018-06-15T02:29:31.281Z,28.40
2018-06-15T02:30:02.504Z,25.72
2018-06-15T02:30:33.684Z,26.42
2018-06-15T02:31:04.853Z,25.82
2018-06-15T02:31:36.078Z,29.05
2018-06-15T02:32:07.290Z,24.12
2018-06-15T02:32:38.513Z,24.85
2018-06-15T02:33:09.734Z,25.27
2018-06-15T02:33:40.961Z,31.20
2018-06-15T02:34:12.209Z,27.93
2018-06-15T02:34:43.390Z,29.05
2018-06-15T02:35:14.556Z,29.42
2018-06-15T02:35:45.759Z,33.35
2018-06-15T02:36:16.934Z,34.15
2018-06-15T02:36:48.149Z,24.50
2018-06-15T02:37:19.323Z,26.73
2018-06-15T02:37:50.537Z,26.70
2018-06-15T02:38:21.719Z,27.07
2018-06-15T02:38:52.887Z,26.25
2018-06-15T02:39:24.062Z,31.15
2018-06-15T02:39:55.228Z,25.52
2018-06-15T02:40:26.453Z,23.12
2018-06-15T02:40:57.641Z,27.93
2018-06-15T02:41:28.862Z,22.98
2018-06-15T02:42:00.086Z,27.02
2018-06-15T02:42:31.320Z,28.27
2018-06-15T02:43:02.537Z,24.52
2018-06-15T02:43:33.738Z,32.13
2018-06-15T02:44:04.974Z,24.85
2018-06-15T02:44:36.200Z,26.20
2018-06-15T02:45:07.380Z,30.37
2018-06-15T02:45:38.551Z,25.50
2018-06-15T02:46:09.724Z,24.43
2018-06-15T02:46:40.958Z,24.40
2018-06-15T02:47:12.142Z,29.15
2018-06-15T02:47:43.369Z,28.62
2018-06-15T02:48:14.625Z,29.15
2018-06-15T02:48:45.836Z,29.72
2018-06-15T02:49:17.001Z,30.52
2018-06-15T02:49:48.227Z,27.65
2018-06-15T02:50:19.469Z,25.25
2018-06-15T02:50:50.649Z,26.33
2018-06-15T02:51:21.817Z,27.37
2018-06-15T02:51:53.052Z,31.23
2018-06-15T02:52:24.277Z,28.60
2018-06-15T02:52:55.538Z,26.80
2018-06-15T02:53:26.734Z,26.75
2018-06-15T02:53:57.902Z,28.92
2018-06-15T02:54:29.080Z,27.50
2018-06-15T02:55:00.253Z,26.62
2018-06-15T02:55:31.482Z,26.48
2018-06-15T02:56:02.683Z,24.57
2018-06-15T02:56:33.848Z,24.37
2018-06-15T02:57:05.019Z,19.10
2018-06-15T02:57:36.236Z,22.80
2018-06-15T02:58:07.514Z,23.32
2018-06-15T02:58:38.705Z,22.52
2018-06-15T02:59:09.965Z,18.65
2018-06-15T02:59:41.156Z,22.85
2018-06-15T03:00:12.328Z,21.52
2018-06-15T03:00:43.557Z,23.87
2018-06-15T03:01:14.748Z,25.27
2018-06-15T03:01:45.928Z,25.48
2018-06-15T03:02:17.153Z,24.92
2018-06-15T03:02:48.336Z,23.47
2018-06-15T03:03:19.512Z,23.20
2018-06-15T03:03:50.730Z,24.05
2018-06-15T03:04:21.962Z,18.42
2018-06-15T03:04:53.140Z,24.82
2018-06-15T03:05:24.369Z,25.05
2018-06-15T03:05:55.551Z,23.35
2018-06-15T03:06:26.732Z,23.45
2018-06-15T03:06:57.902Z,24.07
2018-06-15T03:07:29.065Z,21.50
2018-06-15T03:08:00.236Z,20.88
2018-06-15T03:08:31.421Z,20.60
2018-06-15T03:09:02.661Z,22.62
2018-06-15T03:09:33.835Z,21.17
2018-06-15T03:10:05.016Z,26.02
2018-06-15T03:10:36.233Z,23.52
2018-06-15T03:11:07.409Z,29.10
2018-06-15T03:11:38.646Z,28.77
2018-06-15T03:12:09.870Z,23.22
2018-06-15T03:12:41.085Z,26.65
2018-06-15T03:13:12.320Z,25.77
2018-06-15T03:13:43.515Z,27.77
2018-06-15T03:14:14.692Z,28.85
2018-06-15T03:14:45.913Z,22.58
2018-06-15T03:15:17.143Z,25.80
2018-06-15T03:15:48.376Z,27.52
2018-06-15T03:16:19.553Z,26.85
2018-06-15T03:16:50.731Z,30.02
2018-06-15T03:17:21.949Z,26.45
2018-06-15T03:17:53.199Z,29.72
2018-06-15T03:18:24.378Z,26.85
2018-06-15T03:18:55.610Z,24.75
2018-06-15T03:19:26.781Z,23.77
2018-06-15T03:19:57.972Z,27.20
2018-06-15T03:20:29.196Z,24.30
2018-06-15T03:21:00.373Z,22.10
2018-06-15T03:21:31.580Z,24.80
2018-06-15T03:22:02.806Z,22.20
2018-06-15T03:22:33.984Z,21.85
2018-06-15T03:23:05.165Z,23.12
2018-06-15T03:23:36.342Z,20.82
2018-06-15T03:24:07.580Z,19.57
2018-06-15T03:24:38.745Z,21.85
2018-06-15T03:25:09.979Z,22.80
2018-06-15T03:25:41.116Z,24.12
2018-06-15T03:26:12.339Z,20.65
2018-06-15T03:26:43.537Z,22.90
2018-06-15T03:27:14.701Z,21.02
2018-06-15T03:27:45.869Z,19.10
2018-06-15T03:28:17.036Z,21.52
2018-06-15T03:28:48.212Z,21.97
2018-06-15T03:29:19.421Z,18.12
2018-06-15T03:29:50.655Z,18.30
2018-06-15T03:30:21.837Z,19.62
2018-06-15T03:30:53.016Z,20.00
2018-06-15T03:31:24.239Z,26.25
2018-06-15T03:31:55.448Z,23.90
2018-06-15T03:32:26.674Z,24.37
2018-06-15T03:32:57.865Z,19.05
2018-06-15T03:33:29.056Z,22.27
2018-06-15T03:34:00.227Z,19.25
2018-06-15T03:34:31.444Z,22.02
2018-06-15T03:35:02.625Z,18.12
2018-06-15T03:35:33.794Z,17.50
2018-06-15T03:36:04.964Z,19.70
2018-06-15T03:36:36.147Z,16.75
2018-06-15T03:37:07.378Z,24.35
2018-06-15T03:37:38.596Z,20.60
2018-06-15T03:38:09.760Z,21.15
2018-06-15T03:38:40.986Z,22.22
2018-06-15T03:39:12.237Z,21.00
2018-06-15T03:39:43.519Z,26.55
2018-06-15T03:40:14.713Z,20.95
2018-06-15T03:40:45.940Z,17.98
2018-06-15T03:41:17.133Z,18.62
2018-06-15T03:41:48.394Z,18.57
2018-06-15T03:42:19.593Z,21.17
2018-06-15T03:42:50.765Z,21.35
2018-06-15T03:43:21.989Z,19.57
2018-06-15T03:43:53.217Z,21.90
2018-06-15T03:44:24.445Z,21.77
2018-06-15T03:44:55.661Z,21.25
2018-06-15T03:45:26.832Z,21.93
2018-06-15T03:45:58.048Z,18.20
2018-06-15T03:46:29.222Z,19.12
2018-06-15T03:47:00.439Z,17.42
2018-06-15T03:47:31.623Z,22.85
2018-06-15T03:48:02.817Z,21.85
2018-06-15T03:48:33.997Z,22.07
2018-06-15T03:49:05.176Z,20.08
2018-06-15T03:49:36.375Z,20.50
2018-06-15T03:50:07.568Z,20.90
2018-06-15T03:50:38.753Z,24.87
2018-06-15T03:51:09.980Z,20.80
2018-06-15T03:51:41.207Z,21.27
2018-06-15T03:52:12.428Z,19.05
2018-06-15T03:52:43.652Z,19.07
2018-06-15T03:53:14.832Z,19.73
2018-06-15T03:53:46.016Z,22.58
2018-06-15T03:54:17.203Z,23.25
2018-06-15T03:54:48.489Z,22.02
2018-06-15T03:55:19.720Z,20.55
2018-06-15T03:55:51.005Z,22.90
2018-06-15T03:56:22.224Z,19.75
2018-06-15T03:56:53.453Z,24.47
2018-06-15T03:57:24.645Z,22.30
2018-06-15T03:57:55.828Z,21.15
2018-06-15T03:58:27.195Z,22.00
2018-06-15T03:58:58.391Z,19.70
2018-06-15T03:59:29.633Z,17.48
2018-06-15T04:00:00.865Z,20.70
2018-06-15T04:00:32.083Z,20.85
2018-06-15T04:01:03.305Z,27.67
2018-06-15T04:01:34.484Z,21.43
2018-06-15T04:02:05.674Z,26.05
2018-06-15T04:02:36.848Z,20.77
2018-06-15T04:03:08.026Z,22.47
2018-06-15T04:03:39.236Z,20.53
2018-06-15T04:04:10.464Z,23.52
2018-06-15T04:04:41.713Z,25.32
2018-06-15T04:05:12.895Z,21.80
2018-06-15T04:05:44.123Z,22.33
2018-06-15T04:06:15.296Z,24.23
2018-06-15T04:06:46.469Z,20.60
2018-06-15T04:07:17.851Z,21.17
2018-06-15T04:07:49.093Z,23.53
2018-06-15T04:08:20.276Z,19.70
2018-06-15T04:08:51.449Z,19.70
2018-06-15T04:09:22.632Z,21.90
2018-06-15T04:09:53.847Z,21.70
2018-06-15T04:10:25.030Z,19.80
2018-06-15T04:10:56.205Z,19.67
2018-06-15T04:11:27.384Z,22.63
2018-06-15T04:11:58.575Z,16.95
2018-06-15T04:12:29.786Z,21.30
2018-06-15T04:13:01.025Z,21.70
2018-06-15T04:13:32.285Z,21.73
2018-06-15T04:14:03.472Z,21.07
2018-06-15T04:14:34.705Z,19.97
2018-06-15T04:15:05.960Z,18.33
2018-06-15T04:15:37.144Z,18.03
2018-06-15T04:16:08.316Z,20.20
2018-06-15T04:16:39.551Z,18.60
2018-06-15T04:17:10.782Z,18.07
2018-06-15T04:17:42.014Z,20.60
2018-06-15T04:18:13.188Z,21.90
2018-06-15T04:18:44.351Z,20.60
2018-06-15T04:19:15.537Z,21.77
2018-06-15T04:19:46.798Z,20.07
2018-06-15T04:20:18.078Z,25.97
2018-06-15T04:20:49.259Z,22.73
2018-06-15T04:21:20.441Z,21.80
2018-06-15T04:21:51.678Z,22.45
2018-06-15T04:22:22.917Z,25.57
2018-06-15T04:22:54.102Z,25.88
2018-06-15T04:23:25.333Z,21.37
2018-06-15T04:23:56.513Z,22.37
2018-06-15T04:24:27.696Z,22.07
2018-06-15T04:24:58.886Z,24.33
2018-06-15T04:25:30.117Z,24.57
2018-06-15T04:26:01.354Z,23.73
2018-06-15T04:26:32.602Z,25.70
2018-06-15T04:27:03.846Z,24.55
2018-06-15T04:27:35.110Z,22.03
2018-06-15T04:28:06.337Z,22.62
2018-06-15T04:28:37.614Z,21.37
2018-06-15T04:29:08.791Z,22.17
2018-06-15T04:29:39.957Z,20.40
2018-06-15T04:30:11.185Z,22.77
2018-06-15T04:30:42.368Z,22.23
2018-06-15T04:31:13.582Z,20.73
2018-06-15T04:31:44.756Z,19.53
2018-06-15T04:32:15.928Z,23.93
2018-06-15T04:32:47.236Z,24.27
2018-06-15T04:33:18.418Z,22.23
2018-06-15T04:33:49.597Z,19.90
2018-06-15T04:34:20.825Z,19.47
2018-06-15T04:34:52.008Z,22.20
2018-06-15T04:35:23.333Z,20.27
2018-06-15T04:35:54.512Z,17.80
2018-06-15T04:36:25.733Z,18.97
2018-06-15T04:36:57.019Z,18.77
2018-06-15T04:37:28.236Z,19.83
2018-06-15T04:37:59.425Z,22.43
2018-06-15T04:38:30.654Z,18.07
2018-06-15T04:39:01.846Z,21.20
2018-06-15T04:39:33.017Z,16.07
2018-06-15T04:40:04.242Z,21.87
2018-06-15T04:40:35.433Z,19.87
2018-06-15T04:41:06.603Z,20.50
2018-06-15T04:41:37.788Z,20.27
2018-06-15T04:42:09.009Z,23.83
2018-06-15T04:42:40.179Z,18.70
2018-06-15T04:43:11.367Z,19.48
2018-06-15T04:43:42.549Z,22.45
2018-06-15T04:44:13.728Z,19.20
2018-06-15T04:44:44.922Z,18.50
2018-06-15T04:45:16.102Z,18.17
2018-06-15T04:45:47.339Z,20.00
2018-06-15T04:46:18.641Z,21.45
2018-06-15T04:46:49.826Z,18.27
2018-06-15T04:47:21.003Z,18.82
2018-06-15T04:47:52.234Z,19.02
2018-06-15T04:48:23.479Z,17.55
2018-06-15T04:48:54.712Z,18.80
2018-06-15T04:49:25.906Z,19.40
2018-06-15T04:49:57.132Z,18.45
2018-06-15T04:50:28.378Z,20.45
2018-06-15T04:50:59.560Z,16.73
2018-06-15T04:51:30.772Z,16.48
2018-06-15T04:52:01.946Z,19.12
2018-06-15T04:52:33.173Z,18.27
2018-06-15T04:53:04.364Z,23.00
2018-06-15T04:53:35.553Z,25.65
2018-06-15T04:54:06.776Z,19.07
2018-06-15T04:54:37.971Z,20.08
2018-06-15T04:55:09.156Z,22.45
2018-06-15T04:55:40.337Z,19.48
2018-06-15T04:56:11.546Z,19.57
2018-06-15T04:56:42.772Z,15.08
2018-06-15T04:57:14.017Z,16.23
2018-06-15T04:57:45.255Z,14.95
2018-06-15T04:58:16.482Z,17.70
2018-06-15T04:58:47.678Z,15.72
2018-06-15T04:59:18.873Z,18.32
2018-06-15T04:59:50.045Z,19.73
2018-06-15T05:00:21.264Z,14.18
2018-06-15T05:00:52.489Z,14.68
2018-06-15T05:01:23.730Z,14.73
2018-06-15T05:01:54.965Z,16.80
2018-06-15T05:02:26.140Z,13.57
2018-06-15T05:02:57.316Z,13.53
2018-06-15T05:03:28.599Z,16.73
2018-06-15T05:03:59.784Z,14.70
2018-06-15T05:04:30.964Z,12.23
2018-06-15T05:05:02.137Z,17.13
2018-06-15T05:05:33.356Z,15.13
2018-06-15T05:06:04.593Z,16.03
2018-06-15T05:06:35.785Z,13.13
2018-06-15T05:07:07.005Z,12.07
2018-06-15T05:07:38.176Z,11.07
2018-06-15T05:08:09.405Z,16.90
2018-06-15T05:08:40.700Z,11.47
2018-06-15T05:09:11.940Z,12.43
2018-06-15T05:09:43.092Z,11.17
2018-06-15T05:10:14.318Z,12.30
2018-06-15T05:10:45.550Z,12.13
2018-06-15T05:11:16.732Z,15.80
2018-06-15T05:11:47.915Z,12.20
2018-06-15T05:12:19.089Z,13.70
2018-06-15T05:12:50.256Z,13.10
2018-06-15T05:13:21.631Z,11.63
2018-06-15T05:13:52.835Z,11.73
2018-06-15T05:14:24.067Z,14.10
2018-06-15T05:14:55.252Z,11.50
2018-06-15T05:15:26.440Z,11.63
2018-06-15T05:15:57.749Z,11.00
2018-06-15T05:16:28.978Z,10.03
2018-06-15T05:17:00.186Z,10.73
2018-06-15T05:17:31.419Z,10.67
2018-06-15T05:18:02.615Z,11.53
2018-06-15T05:18:33.880Z,10.77
2018-06-15T05:19:05.101Z,12.83
2018-06-15T05:19:36.279Z,12.57
2018-06-15T05:20:07.460Z,13.40
2018-06-15T05:20:38.629Z,11.03
2018-06-15T05:21:09.814Z,10.77
2018-06-15T05:21:41.036Z,10.77
2018-06-15T05:22:12.251Z,14.57
2018-06-15T05:22:43.438Z,10.57
2018-06-15T05:23:14.613Z,14.73
2018-06-15T05:23:45.814Z,11.37
2018-06-15T05:24:17.032Z,11.93
2018-06-15T05:24:48.208Z,10.83
2018-06-15T05:25:19.384Z,10.23
2018-06-15T05:25:50.736Z,10.93
2018-06-15T05:26:21.909Z,11.13
2018-06-15T05:26:53.093Z,10.60
2018-06-15T05:27:24.321Z,11.20
2018-06-15T05:27:55.507Z,13.83
2018-06-15T05:28:26.741Z,11.07
2018-06-15T05:28:57.992Z,10.77
2018-06-15T05:29:29.233Z,14.27
2018-06-15T05:30:00.482Z,12.73
2018-06-15T05:30:31.719Z,9.87
2018-06-15T05:31:02.953Z,9.83
2018-06-15T05:31:34.240Z,11.20
2018-06-15T05:32:05.425Z,11.77
2018-06-15T05:32:36.601Z,10.40
2018-06-15T05:33:07.845Z,13.03
2018-06-15T05:33:39.084Z,10.37
2018-06-15T05:34:10.476Z,9.87
2018-06-15T05:34:41.657Z,12.03
2018-06-15T05:35:12.935Z,10.10
2018-06-15T05:35:44.110Z,11.93
2018-06-15T05:36:15.328Z,10.30
2018-06-15T05:36:46.601Z,14.47
2018-06-15T05:37:17.865Z,10.47
2018-06-15T05:37:49.146Z,9.53
2018-06-15T05:38:20.336Z,10.20
2018-06-15T05:38:51.566Z,10.47
2018-06-15T05:39:22.775Z,10.43
2018-06-15T05:39:53.953Z,9.87
2018-06-15T05:40:25.228Z,10.23
2018-06-15T05:40:56.412Z,9.57
2018-06-15T05:41:27.617Z,11.67
2018-06-15T05:41:58.825Z,10.50
2018-06-15T05:42:30.042Z,10.33
2018-06-15T05:43:01.216Z,12.10
2018-06-15T05:43:32.391Z,10.73
2018-06-15T05:44:03.597Z,14.80
2018-06-15T05:44:34.795Z,11.73
2018-06-15T05:45:05.976Z,12.47
2018-06-15T05:45:37.209Z,10.60
2018-06-15T05:46:08.401Z,13.00
2018-06-15T05:46:39.580Z,10.30
2018-06-15T05:47:10.773Z,11.73
2018-06-15T05:47:41.989Z,11.30
2018-06-15T05:48:13.173Z,16.20
2018-06-15T05:48:44.348Z,11.97
2018-06-15T05:49:15.528Z,12.07
2018-06-15T05:49:48.426Z,11.03
2018-06-15T05:50:19.674Z,11.50
2018-06-15T05:50:50.925Z,10.50
2018-06-15T05:51:22.120Z,13.43
2018-06-15T05:51:53.357Z,11.80
2018-06-15T05:52:24.696Z,11.83
2018-06-15T05:52:55.894Z,10.97
2018-06-15T05:53:27.079Z,12.03
2018-06-15T05:53:58.265Z,12.40
2018-06-15T05:54:29.493Z,12.50
2018-06-15T05:55:00.710Z,13.17
2018-06-15T05:55:31.933Z,13.10
2018-06-15T05:56:03.218Z,13.43
2018-06-15T05:56:34.410Z,12.77
2018-06-15T05:57:05.591Z,13.47
2018-06-15T05:57:36.777Z,13.30
2018-06-15T05:58:08.013Z,12.83
2018-06-15T05:58:39.204Z,12.33
2018-06-15T05:59:10.400Z,13.67
2018-06-15T05:59:41.580Z,13.07
2018-06-15T06:00:12.789Z,11.60
2018-06-15T06:00:43.989Z,13.87
2018-06-15T06:01:15.198Z,12.00
2018-06-15T06:01:46.375Z,11.93
2018-06-15T06:02:17.594Z,11.73
2018-06-15T06:02:48.775Z,11.30
2018-06-15T06:03:19.997Z,11.87
2018-06-15T06:03:51.237Z,12.27
2018-06-15T06:04:22.414Z,13.47
2018-06-15T06:04:53.682Z,12.37
2018-06-15T06:05:24.881Z,12.53
2018-06-15T06:05:56.088Z,11.60
2018-06-15T06:06:27.284Z,13.43
2018-06-15T06:06:58.517Z,14.83
2018-06-15T06:07:29.756Z,12.37
2018-06-15T06:08:00.957Z,10.87
2018-06-15T06:08:32.190Z,12.50
2018-06-15T06:09:03.433Z,11.87
2018-06-15T06:09:34.709Z,11.30
2018-06-15T06:10:05.912Z,11.57
2018-06-15T06:10:37.093Z,12.23
2018-06-15T06:11:08.333Z,11.77
2018-06-15T06:11:39.538Z,12.20
2018-06-15T06:12:10.778Z,12.30
2018-06-15T06:12:41.973Z,13.10
2018-06-15T06:13:13.204Z,12.53
2018-06-15T06:13:44.400Z,12.07
2018-06-15T06:14:15.579Z,12.73
2018-06-15T06:14:46.798Z,12.17
2018-06-15T06:15:17.976Z,11.10
2018-06-15T06:15:49.157Z,14.80
2018-06-15T06:16:20.374Z,12.93
2018-06-15T06:16:51.608Z,12.43
2018-06-15T06:17:22.789Z,11.80
2018-06-15T06:17:53.990Z,11.90
2018-06-15T06:18:25.237Z,14.80
2018-06-15T06:18:56.435Z,12.40
2018-06-15T06:19:27.632Z,13.33
2018-06-15T06:19:58.840Z,12.77
2018-06-15T06:20:30.043Z,11.20
2018-06-15T06:21:01.276Z,15.20
2018-06-15T06:21:32.557Z,12.20
2018-06-15T06:22:03.750Z,12.47
2018-06-15T06:22:34.937Z,12.37
2018-06-15T06:23:06.128Z,12.40
2018-06-15T06:23:37.358Z,12.67
2018-06-15T06:24:08.561Z,13.27
2018-06-15T06:24:39.798Z,12.87
2018-06-15T06:25:10.992Z,12.60
2018-06-15T06:25:43.302Z,12.87
2018-06-15T06:26:14.526Z,11.70
2018-06-15T06:26:45.767Z,13.47
2018-06-15T06:27:16.957Z,12.70
2018-06-15T06:27:48.130Z,12.43
2018-06-15T06:28:19.383Z,12.40
2018-06-15T06:28:50.569Z,13.23
2018-06-15T06:29:21.752Z,13.50
2018-06-15T06:29:52.975Z,13.03
2018-06-15T06:30:24.239Z,12.40
2018-06-15T06:30:55.429Z,12.07
2018-06-15T06:31:26.670Z,11.83
2018-06-15T06:31:57.914Z,11.77
2018-06-15T06:32:29.180Z,13.00
2018-06-15T06:33:00.375Z,12.57
2018-06-15T06:33:31.601Z,13.43
2018-06-15T06:34:02.788Z,13.20
2018-06-15T06:34:34.046Z,11.90
2018-06-15T06:35:05.233Z,12.17
2018-06-15T06:35:36.463Z,11.67
2018-06-15T06:36:07.658Z,12.23
2018-06-15T06:36:38.902Z,14.50
2018-06-15T06:37:10.182Z,14.20
2018-06-15T06:37:41.410Z,13.67
2018-06-15T06:38:12.596Z,12.67
2018-06-15T06:38:43.834Z,13.50
2018-06-15T06:39:15.101Z,13.27
2018-06-15T06:39:46.350Z,12.90
2018-06-15T06:40:17.546Z,13.23
2018-06-15T06:40:48.772Z,13.27
2018-06-15T06:41:20.009Z,13.43
2018-06-15T06:41:51.249Z,15.67